createdAt,value
2017-07-29T00:00:44.881Z,18.01
2017-07-29T00:01:45.172Z,18.14
2017-07-29T00:02:45.203Z,18.11
2017-07-29T00:03:45.143Z,18.15
2017-07-29T00:04:45.161Z,18.14
2017-07-29T00:05:45.127Z,18.25
2017-07-29T00:06:45.097Z,18.23
2017-07-29T00:07:45.074Z,18.33
2017-07-29T00:08:44.753Z,18.29
2017-07-29T00:09:44.752Z,18.05
2017-07-29T00:10:44.413Z,18.05
2017-07-29T00:11:44.703Z,18.01
2017-07-29T00:12:44.684Z,17.95
2017-07-29T00:13:44.965Z,17.8
2017-07-29T00:14:44.352Z,17.77
2017-07-29T00:15:44.950Z,17.7
2017-07-29T00:16:44.632Z,17.72
2017-07-29T00:17:44.902Z,17.87
2017-07-29T00:18:44.584Z,17.87
2017-07-29T00:19:44.882Z,17.77
2017-07-29T00:20:44.851Z,17.7
2017-07-29T00:21:44.316Z,17.62
2017-07-29T00:22:44.832Z,17.64
2017-07-29T00:23:44.826Z,17.64
2017-07-29T00:24:44.502Z,17.46
2017-07-29T00:25:44.473Z,17.52
2017-07-29T00:26:44.757Z,17.44
2017-07-29T00:27:44.755Z,17.46
2017-07-29T00:28:44.429Z,17.48
2017-07-29T00:29:44.413Z,17.51
2017-07-29T00:30:44.394Z,17.46
2017-07-29T00:31:44.683Z,17.48
2017-07-29T00:32:44.667Z,17.51
2017-07-29T00:33:44.665Z,17.55
2017-07-29T00:34:44.322Z,17.64
2017-07-29T00:35:44.624Z,17.52
2017-07-29T00:36:44.297Z,17.48
2017-07-29T00:37:44.271Z,17.55
2017-07-29T00:38:44.571Z,17.7
2017-07-29T00:39:44.552Z,17.72
2017-07-29T00:40:44.541Z,17.77
2017-07-29T00:41:44.530Z,17.68
2017-07-29T00:42:44.198Z,17.6
2017-07-29T00:43:43.871Z,17.62
2017-07-29T00:44:44.462Z,17.6
2017-07-29T00:45:43.832Z,17.62
2017-07-29T00:46:44.133Z,17.65
2017-07-29T00:47:43.818Z,17.77
2017-07-29T00:48:44.403Z,17.86
2017-07-29T00:49:44.081Z,17.7
2017-07-29T00:50:44.064Z,17.67
2017-07-29T00:51:44.041Z,17.77
2017-07-29T00:52:44.043Z,17.83
2017-07-29T00:53:44.313Z,17.83
2017-07-29T00:54:43.992Z,17.78
2017-07-29T00:55:44.303Z,17.82
2017-07-29T00:56:44.293Z,17.78
2017-07-29T00:57:44.251Z,17.72
2017-07-29T00:58:44.240Z,17.65
2017-07-29T00:59:43.612Z,17.65
2017-07-29T01:00:43.903Z,17.56
2017-07-29T01:01:43.581Z,17.62
2017-07-29T01:02:43.562Z,17.54
2017-07-29T01:03:44.162Z,17.54
2017-07-29T01:04:44.132Z,17.58
2017-07-29T01:05:43.815Z,17.62
2017-07-29T01:06:43.801Z,17.56
2017-07-29T01:07:44.087Z,17.4
2017-07-29T01:08:43.782Z,17.55
2017-07-29T01:09:44.064Z,17.65
2017-07-29T01:10:43.429Z,17.62
2017-07-29T01:11:43.714Z,17.58
2017-07-29T01:12:44.003Z,17.65
2017-07-29T01:13:43.992Z,17.62
2017-07-29T01:14:43.672Z,17.67
2017-07-29T01:15:43.975Z,17.67
2017-07-29T01:16:43.631Z,17.67
2017-07-29T01:17:43.633Z,17.64
2017-07-29T01:18:43.602Z,17.54
2017-07-29T01:19:43.413Z,17.48
2017-07-29T01:20:43.860Z,17.45
2017-07-29T01:21:43.564Z,17.48
2017-07-29T01:22:43.833Z,17.49
2017-07-29T01:23:43.837Z,17.52
2017-07-29T01:24:43.502Z,17.54
2017-07-29T01:25:43.602Z,17.7
2017-07-29T01:26:43.477Z,17.67
2017-07-29T01:27:43.472Z,17.6
2017-07-29T01:28:43.450Z,17.51
2017-07-29T01:29:43.452Z,17.56
2017-07-29T01:30:43.411Z,17.55
2017-07-29T01:31:43.412Z,17.62
2017-07-29T01:32:43.063Z,17.52
2017-07-29T01:33:43.715Z,17.56
2017-07-29T01:34:43.646Z,17.44
2017-07-29T01:35:43.324Z,17.44
2017-07-29T01:36:43.620Z,17.55
2017-07-29T01:37:43.284Z,17.42
2017-07-29T01:38:42.989Z,17.44
2017-07-29T01:39:43.272Z,17.42
2017-07-29T01:40:43.542Z,17.46
2017-07-29T01:41:43.233Z,17.62
2017-07-29T01:42:43.542Z,17.62
2017-07-29T01:43:43.223Z,17.67
2017-07-29T01:44:43.178Z,17.67
2017-07-29T01:45:43.471Z,17.67
2017-07-29T01:46:43.450Z,17.7
2017-07-29T01:47:43.480Z,17.64
2017-07-29T01:48:43.112Z,17.52
2017-07-29T01:49:43.402Z,17.62
2017-07-29T01:50:43.133Z,17.65
2017-07-29T01:51:43.402Z,17.49
2017-07-29T01:52:43.354Z,17.56
2017-07-29T01:53:43.352Z,17.54
2017-07-29T01:54:43.383Z,17.58
2017-07-29T01:55:43.302Z,17.62
2017-07-29T01:56:43.352Z,17.58
2017-07-29T01:57:42.752Z,17.6
2017-07-29T01:58:43.272Z,17.56
2017-07-29T01:59:43.330Z,17.58
2017-07-29T02:00:43.262Z,17.54
2017-07-29T02:01:42.612Z,17.6
2017-07-29T02:02:43.212Z,17.6
2017-07-29T02:03:43.252Z,17.62
2017-07-29T02:04:43.162Z,17.7
2017-07-29T02:05:43.200Z,17.72
2017-07-29T02:06:43.117Z,17.78
2017-07-29T02:07:43.153Z,17.75
2017-07-29T02:08:43.108Z,17.67
2017-07-29T02:09:42.765Z,17.82
2017-07-29T02:10:43.044Z,17.8
2017-07-29T02:11:42.742Z,17.95
2017-07-29T02:12:42.712Z,18.01
2017-07-29T02:13:42.705Z,17.95
2017-07-29T02:14:42.379Z,17.92
2017-07-29T02:15:42.980Z,17.86
2017-07-29T02:16:42.662Z,17.74
2017-07-29T02:17:42.952Z,17.85
2017-07-29T02:18:42.973Z,17.85
2017-07-29T02:19:42.915Z,17.78
2017-07-29T02:20:42.582Z,17.92
2017-07-29T02:21:42.912Z,17.95
2017-07-29T02:22:42.912Z,17.83
2017-07-29T02:23:42.530Z,17.95
2017-07-29T02:24:42.865Z,17.98
2017-07-29T02:25:42.502Z,17.96
2017-07-29T02:26:42.792Z,18.02
2017-07-29T02:27:42.882Z,18.08
2017-07-29T02:28:42.792Z,18.01
2017-07-29T02:29:42.738Z,18.07
2017-07-29T02:30:42.741Z,17.96
2017-07-29T02:31:42.409Z,18.07
2017-07-29T02:32:42.391Z,18.12
2017-07-29T02:33:42.723Z,18.18
2017-07-29T02:34:42.663Z,18.18
2017-07-29T02:35:42.655Z,18.11
2017-07-29T02:36:42.021Z,18.11
2017-07-29T02:37:42.304Z,18.26
2017-07-29T02:38:42.612Z,18.25
2017-07-29T02:39:42.271Z,18.26
2017-07-29T02:40:42.571Z,18.29
2017-07-29T02:41:42.244Z,18.26
2017-07-29T02:42:42.242Z,18.26
2017-07-29T02:43:42.510Z,18.29
2017-07-29T02:44:41.896Z,18.22
2017-07-29T02:45:42.489Z,18.41
2017-07-29T02:46:42.171Z,18.32
2017-07-29T02:47:42.144Z,18.38
2017-07-29T02:48:42.134Z,18.33
2017-07-29T02:49:42.421Z,18.4
2017-07-29T02:50:42.092Z,18.41
2017-07-29T02:51:42.392Z,18.35
2017-07-29T02:52:42.060Z,18.45
2017-07-29T02:53:42.053Z,18.4
2017-07-29T02:54:42.053Z,18.4
2017-07-29T02:55:42.012Z,18.45
2017-07-29T02:56:42.013Z,18.5
2017-07-29T02:57:41.982Z,18.5
2017-07-29T02:58:41.972Z,18.42
2017-07-29T02:59:42.249Z,18.48
2017-07-29T03:00:41.630Z,18.58
2017-07-29T03:01:41.932Z,18.47
2017-07-29T03:02:41.900Z,18.5
2017-07-29T03:03:41.893Z,18.6
2017-07-29T03:04:41.878Z,18.63
2017-07-29T03:05:41.851Z,18.63
2017-07-29T03:06:42.146Z,18.63
2017-07-29T03:07:41.816Z,18.62
2017-07-29T03:08:41.811Z,18.69
2017-07-29T03:09:41.491Z,18.59
2017-07-29T03:10:41.791Z,18.75
2017-07-29T03:11:41.760Z,18.74
2017-07-29T03:12:41.741Z,18.82
2017-07-29T03:13:41.752Z,18.8
2017-07-29T03:14:42.012Z,18.74
2017-07-29T03:15:41.712Z,18.77
2017-07-29T03:16:41.703Z,18.74
2017-07-29T03:17:41.664Z,18.77
2017-07-29T03:18:41.657Z,18.7
2017-07-29T03:19:41.950Z,18.65
2017-07-29T03:20:41.321Z,18.77
2017-07-29T03:21:41.611Z,18.82
2017-07-29T03:22:41.602Z,18.88
2017-07-29T03:23:41.571Z,18.88
2017-07-29T03:24:41.872Z,18.82
2017-07-29T03:25:41.544Z,18.93
2017-07-29T03:26:41.842Z,18.97
2017-07-29T03:27:41.813Z,18.92
2017-07-29T03:28:41.292Z,18.97
2017-07-29T03:29:41.174Z,18.96
2017-07-29T03:30:41.582Z,18.95
2017-07-29T03:31:41.753Z,18.95
2017-07-29T03:32:41.735Z,18.92
2017-07-29T03:33:41.722Z,18.85
2017-07-29T03:34:41.402Z,18.87
2017-07-29T03:35:41.391Z,18.97
2017-07-29T03:36:41.471Z,18.95
2017-07-29T03:37:41.361Z,19.06
2017-07-29T03:38:41.341Z,18.96
2017-07-29T03:39:41.643Z,18.99
2017-07-29T03:40:41.354Z,19.07
2017-07-29T03:41:41.601Z,19.06
2017-07-29T03:42:41.281Z,19.12
2017-07-29T03:43:41.613Z,19.07
2017-07-29T03:44:41.290Z,19.18
2017-07-29T03:45:41.280Z,19.14
2017-07-29T03:46:41.531Z,19.16
2017-07-29T03:47:41.219Z,19.11
2017-07-29T03:48:41.499Z,19.15
2017-07-29T03:49:40.863Z,19.15
2017-07-29T03:50:41.470Z,19.15
2017-07-29T03:51:40.831Z,19.19
2017-07-29T03:52:40.842Z,19.23
2017-07-29T03:53:41.443Z,19.22
2017-07-29T03:54:41.112Z,19.21
2017-07-29T03:55:40.782Z,19.15
2017-07-29T03:56:41.068Z,19.16
2017-07-29T03:57:41.060Z,19.15
2017-07-29T03:58:41.370Z,19.14
2017-07-29T03:59:41.035Z,19.21
2017-07-29T04:00:41.096Z,19.21
2017-07-29T04:01:41.027Z,19.25
2017-07-29T04:02:41.303Z,19.19
2017-07-29T04:03:40.962Z,19.23
2017-07-29T04:04:40.948Z,19.22
2017-07-29T04:05:40.942Z,19.18
2017-07-29T04:06:40.932Z,19.23
2017-07-29T04:07:41.206Z,19.33
2017-07-29T04:08:40.942Z,19.28
2017-07-29T04:09:41.221Z,19.34
2017-07-29T04:10:41.161Z,19.19
2017-07-29T04:11:40.843Z,19.33
2017-07-29T04:12:41.133Z,19.33
2017-07-29T04:13:40.871Z,19.37
2017-07-29T04:14:41.198Z,19.28
2017-07-29T04:15:41.127Z,19.4
2017-07-29T04:16:41.180Z,19.44
2017-07-29T04:17:41.158Z,19.41
2017-07-29T04:18:41.040Z,19.37
2017-07-29T04:19:40.721Z,19.4
2017-07-29T04:20:41.005Z,19.4
2017-07-29T04:21:41.052Z,19.4
2017-07-29T04:22:40.677Z,19.41
2017-07-29T04:23:40.349Z,19.4
2017-07-29T04:24:40.342Z,19.43
2017-07-29T04:25:40.991Z,19.46
2017-07-29T04:26:40.964Z,19.43
2017-07-29T04:27:40.955Z,19.37
2017-07-29T04:28:40.942Z,19.38
2017-07-29T04:29:40.584Z,19.4
2017-07-29T04:30:40.860Z,19.38
2017-07-29T04:31:40.567Z,19.33
2017-07-29T04:32:40.833Z,19.28
2017-07-29T04:33:40.811Z,19.41
2017-07-29T04:34:40.812Z,19.41
2017-07-29T04:35:40.803Z,19.46
2017-07-29T04:36:40.871Z,19.4
2017-07-29T04:37:40.753Z,19.46
2017-07-29T04:38:40.449Z,19.4
2017-07-29T04:39:40.741Z,19.38
2017-07-29T04:40:40.712Z,19.44
2017-07-29T04:41:40.692Z,19.4
2017-07-29T04:42:40.372Z,19.26
2017-07-29T04:43:40.662Z,19.41
2017-07-29T04:44:40.341Z,19.4
2017-07-29T04:45:40.629Z,19.38
2017-07-29T04:46:40.625Z,19.38
2017-07-29T04:47:40.301Z,19.4
2017-07-29T04:48:40.292Z,19.4
2017-07-29T04:49:40.271Z,19.4
2017-07-29T04:50:40.562Z,19.46
2017-07-29T04:51:40.231Z,19.44
2017-07-29T04:52:39.921Z,19.37
2017-07-29T04:53:40.211Z,19.52
2017-07-29T04:54:40.192Z,19.55
2017-07-29T04:55:40.170Z,19.53
2017-07-29T04:56:40.470Z,19.59
2017-07-29T04:57:40.451Z,19.58
2017-07-29T04:58:40.429Z,19.61
2017-07-29T04:59:40.120Z,19.7
2017-07-29T05:00:40.400Z,19.69
2017-07-29T05:01:40.402Z,19.67
2017-07-29T05:02:40.380Z,19.74
2017-07-29T05:03:40.371Z,19.77
2017-07-29T05:04:40.341Z,19.74
2017-07-29T05:05:40.021Z,19.67
2017-07-29T05:06:40.317Z,19.69
2017-07-29T05:07:40.317Z,19.74
2017-07-29T05:08:39.682Z,19.78
2017-07-29T05:09:40.289Z,19.69
2017-07-29T05:10:40.262Z,19.76
2017-07-29T05:11:40.251Z,19.77
2017-07-29T05:12:40.226Z,19.86
2017-07-29T05:13:39.899Z,19.8
2017-07-29T05:14:40.190Z,19.78
2017-07-29T05:15:40.183Z,19.78
2017-07-29T05:16:39.882Z,19.81
2017-07-29T05:17:39.531Z,19.83
2017-07-29T05:18:39.853Z,19.89
2017-07-29T05:19:39.502Z,19.92
2017-07-29T05:20:39.801Z,19.91
2017-07-29T05:21:40.090Z,19.95
2017-07-29T05:22:40.103Z,19.96
2017-07-29T05:23:39.763Z,20.08
2017-07-29T05:24:40.057Z,20.01
2017-07-29T05:25:39.740Z,19.95
2017-07-29T05:26:40.022Z,19.93
2017-07-29T05:27:39.703Z,20.08
2017-07-29T05:28:39.691Z,20.07
2017-07-29T05:29:39.672Z,20.1
2017-07-29T05:30:39.961Z,20.18
2017-07-29T05:31:39.633Z,20.14
2017-07-29T05:32:39.623Z,20.11
2017-07-29T05:33:39.921Z,20.06
2017-07-29T05:34:39.601Z,20.03
2017-07-29T05:35:39.894Z,20.06
2017-07-29T05:36:39.270Z,20.1
2017-07-29T05:37:39.565Z,20.17
2017-07-29T05:38:39.846Z,20.22
2017-07-29T05:39:39.226Z,20.2
2017-07-29T05:40:39.515Z,20.2
2017-07-29T05:41:39.831Z,20.2
2017-07-29T05:42:39.496Z,20.28
2017-07-29T05:43:39.488Z,20.2
2017-07-29T05:44:39.460Z,20.22
2017-07-29T05:45:39.441Z,20.17
2017-07-29T05:46:39.728Z,20.22
2017-07-29T05:47:39.420Z,20.18
2017-07-29T05:48:39.526Z,20.25
2017-07-29T05:49:39.694Z,20.25
2017-07-29T05:50:39.709Z,20.2
2017-07-29T05:51:39.408Z,20.29
2017-07-29T05:52:39.396Z,20.26
2017-07-29T05:53:39.670Z,20.29
2017-07-29T05:54:39.012Z,20.31
2017-07-29T05:55:38.991Z,20.31
2017-07-29T05:56:39.341Z,20.38
2017-07-29T05:57:39.271Z,20.4
2017-07-29T05:58:39.571Z,20.38
2017-07-29T05:59:39.310Z,20.43
2017-07-29T06:00:39.292Z,20.33
2017-07-29T06:01:39.219Z,20.41
2017-07-29T06:02:39.612Z,20.49
2017-07-29T06:03:39.606Z,20.54
2017-07-29T06:04:39.490Z,20.52
2017-07-29T06:05:38.890Z,20.57
2017-07-29T06:06:39.538Z,20.6
2017-07-29T06:07:38.838Z,20.76
2017-07-29T06:08:39.210Z,20.69
2017-07-29T06:09:39.461Z,20.78
2017-07-29T06:10:39.090Z,20.74
2017-07-29T06:11:39.385Z,20.84
2017-07-29T06:12:39.053Z,20.79
2017-07-29T06:13:39.044Z,20.73
2017-07-29T06:14:39.030Z,20.76
2017-07-29T06:15:39.018Z,20.69
2017-07-29T06:16:38.993Z,20.74
2017-07-29T06:17:38.682Z,20.84
2017-07-29T06:18:38.973Z,20.78
2017-07-29T06:19:38.653Z,20.82
2017-07-29T06:20:39.254Z,20.92
2017-07-29T06:21:38.935Z,21.02
2017-07-29T06:22:38.913Z,21.1
2017-07-29T06:23:38.907Z,21.1
2017-07-29T06:24:39.215Z,21.22
2017-07-29T06:25:38.575Z,21.26
2017-07-29T06:26:39.167Z,21.21
2017-07-29T06:27:38.852Z,21.22
2017-07-29T06:28:39.149Z,21.26
2017-07-29T06:29:38.830Z,21.28
2017-07-29T06:30:39.124Z,21.22
2017-07-29T06:31:38.790Z,21.4
2017-07-29T06:32:38.783Z,21.33
2017-07-29T06:33:38.771Z,21.31
2017-07-29T06:34:38.761Z,21.37
2017-07-29T06:35:39.066Z,21.41
2017-07-29T06:36:39.031Z,21.36
2017-07-29T06:37:38.721Z,21.33
2017-07-29T06:38:39.020Z,21.4
2017-07-29T06:39:38.395Z,21.31
2017-07-29T06:40:38.981Z,21.33
2017-07-29T06:41:38.661Z,21.41
2017-07-29T06:42:38.651Z,21.43
2017-07-29T06:43:38.648Z,21.43
2017-07-29T06:44:38.630Z,21.43
2017-07-29T06:45:38.621Z,21.39
2017-07-29T06:46:38.592Z,21.41
2017-07-29T06:47:38.892Z,21.4
2017-07-29T06:48:38.582Z,21.44
2017-07-29T06:49:38.582Z,21.44
2017-07-29T06:50:38.854Z,21.43
2017-07-29T06:51:38.541Z,21.41
2017-07-29T06:52:38.533Z,21.5
2017-07-29T06:53:38.806Z,21.56
2017-07-29T06:54:38.802Z,21.66
2017-07-29T06:55:38.179Z,21.65
2017-07-29T06:56:38.483Z,21.76
2017-07-29T06:57:38.477Z,21.59
2017-07-29T06:58:40.164Z,21.74
2017-07-29T06:59:39.115Z,21.65
2017-07-29T07:00:51.856Z,21.64
2017-07-29T07:01:38.413Z,21.81
2017-07-29T07:02:38.716Z,21.74
2017-07-29T07:03:38.713Z,21.8
2017-07-29T07:04:38.394Z,21.81
2017-07-29T07:05:38.682Z,21.84
2017-07-29T07:06:38.378Z,21.86
2017-07-29T07:07:38.664Z,21.8
2017-07-29T07:08:38.341Z,21.74
2017-07-29T07:09:38.633Z,21.84
2017-07-29T07:10:38.621Z,21.9
2017-07-29T07:11:38.597Z,21.95
2017-07-29T07:12:38.287Z,22
2017-07-29T07:13:38.564Z,22.08
2017-07-29T07:14:38.651Z,22.12
2017-07-29T07:15:38.533Z,22.22
2017-07-29T07:16:38.214Z,22.15
2017-07-29T07:17:38.516Z,22.08
2017-07-29T07:18:38.499Z,22.14
2017-07-29T07:19:38.490Z,22.06
2017-07-29T07:20:38.482Z,21.96
2017-07-29T07:21:38.464Z,21.95
2017-07-29T07:22:38.474Z,21.92
2017-07-29T07:23:38.453Z,21.84
2017-07-29T07:24:38.469Z,21.88
2017-07-29T07:25:38.414Z,22.03
2017-07-29T07:26:38.417Z,22.02
2017-07-29T07:27:38.394Z,21.96
2017-07-29T07:28:38.445Z,21.97
2017-07-29T07:29:38.372Z,21.81
2017-07-29T07:30:38.063Z,21.74
2017-07-29T07:31:38.343Z,21.88
2017-07-29T07:32:38.401Z,21.88
2017-07-29T07:33:38.334Z,21.92
2017-07-29T07:34:38.333Z,21.83
2017-07-29T07:35:38.304Z,21.9
2017-07-29T07:36:37.964Z,21.96
2017-07-29T07:37:37.973Z,21.79
2017-07-29T07:38:37.943Z,21.73
2017-07-29T07:39:37.941Z,21.88
2017-07-29T07:40:38.229Z,21.86
2017-07-29T07:41:37.903Z,21.8
2017-07-29T07:42:38.193Z,21.95
2017-07-29T07:43:37.885Z,21.93
2017-07-29T07:44:37.874Z,22.1
2017-07-29T07:45:38.164Z,21.95
2017-07-29T07:46:37.860Z,21.93
2017-07-29T07:47:38.141Z,22.06
2017-07-29T07:48:37.831Z,21.99
2017-07-29T07:49:38.100Z,21.97
2017-07-29T07:50:38.093Z,22.1
2017-07-29T07:51:38.083Z,22.22
2017-07-29T07:52:37.771Z,22.14
2017-07-29T07:53:38.059Z,22.12
2017-07-29T07:54:37.746Z,22.08
2017-07-29T07:55:37.521Z,22.1
2017-07-29T07:56:38.021Z,22.1
2017-07-29T07:57:37.700Z,22.03
2017-07-29T07:58:38.007Z,21.96
2017-07-29T07:59:37.997Z,21.95
2017-07-29T08:00:37.660Z,22.05
2017-07-29T08:01:37.960Z,22.05
2017-07-29T08:02:37.941Z,22.06
2017-07-29T08:03:37.936Z,22.08
2017-07-29T08:04:37.920Z,21.97
2017-07-29T08:05:37.923Z,21.95
2017-07-29T08:06:37.911Z,21.99
2017-07-29T08:07:37.900Z,21.93
2017-07-29T08:08:37.871Z,21.86
2017-07-29T08:09:37.547Z,21.83
2017-07-29T08:10:37.599Z,21.86
2017-07-29T08:11:37.333Z,21.8
2017-07-29T08:12:37.811Z,21.83
2017-07-29T08:13:37.550Z,21.88
2017-07-29T08:14:37.542Z,21.96
2017-07-29T08:15:37.469Z,22.02
2017-07-29T08:16:37.170Z,22.08
2017-07-29T08:17:37.451Z,22.21
2017-07-29T08:18:37.559Z,22.42
2017-07-29T08:19:37.171Z,22.43
2017-07-29T08:20:37.411Z,22.37
2017-07-29T08:21:37.100Z,22.39
2017-07-29T08:22:37.698Z,22.35
2017-07-29T08:23:37.703Z,22.24
2017-07-29T08:24:37.680Z,22.18
2017-07-29T08:25:37.160Z,22.2
2017-07-29T08:26:37.447Z,22.15
2017-07-29T08:27:37.710Z,22.1
2017-07-29T08:28:37.332Z,21.93
2017-07-29T08:29:37.704Z,21.83
2017-07-29T08:30:37.291Z,21.77
2017-07-29T08:31:37.350Z,21.62
2017-07-29T08:32:37.579Z,21.7
2017-07-29T08:33:37.268Z,21.76
2017-07-29T08:34:37.270Z,21.73
2017-07-29T08:35:37.296Z,21.9
2017-07-29T08:36:37.522Z,22.12
2017-07-29T08:37:37.201Z,22.08
2017-07-29T08:38:37.492Z,22.12
2017-07-29T08:39:36.866Z,21.96
2017-07-29T08:40:37.160Z,21.96
2017-07-29T08:41:37.157Z,22.1
2017-07-29T08:42:37.447Z,22.1
2017-07-29T08:43:37.489Z,22.17
2017-07-29T08:44:37.537Z,22.11
2017-07-29T08:45:37.490Z,22.08
2017-07-29T08:46:37.492Z,22
2017-07-29T08:47:37.072Z,22.03
2017-07-29T08:48:37.095Z,22.08
2017-07-29T08:49:37.069Z,22.08
2017-07-29T08:50:37.049Z,22.12
2017-07-29T08:51:37.040Z,22.12
2017-07-29T08:52:36.712Z,22.02
2017-07-29T08:53:37.302Z,21.96
2017-07-29T08:54:36.711Z,21.96
2017-07-29T08:55:37.334Z,21.95
2017-07-29T08:56:37.292Z,21.93
2017-07-29T08:57:37.280Z,21.9
2017-07-29T08:58:36.932Z,21.95
2017-07-29T08:59:37.239Z,22
2017-07-29T09:00:36.923Z,22
2017-07-29T09:01:37.225Z,22
2017-07-29T09:02:37.199Z,22.11
2017-07-29T09:03:37.181Z,22.06
2017-07-29T09:04:36.860Z,22.11
2017-07-29T09:05:36.543Z,22.14
2017-07-29T09:06:37.150Z,22.21
2017-07-29T09:07:37.121Z,22.3
2017-07-29T09:08:37.119Z,22.36
2017-07-29T09:09:37.100Z,22.37
2017-07-29T09:10:36.791Z,22.24
2017-07-29T09:11:36.822Z,22.12
2017-07-29T09:12:36.778Z,22.25
2017-07-29T09:13:36.445Z,22.37
2017-07-29T09:14:36.746Z,22.4
2017-07-29T09:15:36.771Z,22.4
2017-07-29T09:16:36.715Z,22.51
2017-07-29T09:17:36.710Z,22.43
2017-07-29T09:18:37.003Z,22.4
2017-07-29T09:19:36.990Z,22.36
2017-07-29T09:20:36.965Z,22.5
2017-07-29T09:21:36.652Z,22.51
2017-07-29T09:22:36.946Z,22.54
2017-07-29T09:23:36.640Z,22.58
2017-07-29T09:24:36.625Z,22.51
2017-07-29T09:25:36.606Z,22.62
2017-07-29T09:26:36.894Z,22.66
2017-07-29T09:27:36.588Z,22.69
2017-07-29T09:28:36.270Z,22.73
2017-07-29T09:29:36.880Z,22.74
2017-07-29T09:30:36.229Z,22.62
2017-07-29T09:31:36.549Z,22.57
2017-07-29T09:32:36.522Z,22.59
2017-07-29T09:33:36.508Z,22.52
2017-07-29T09:34:36.825Z,22.54
2017-07-29T09:35:36.176Z,22.55
2017-07-29T09:36:36.485Z,22.72
2017-07-29T09:37:36.781Z,22.73
2017-07-29T09:38:36.761Z,22.72
2017-07-29T09:39:36.145Z,22.72
2017-07-29T09:40:36.438Z,22.74
2017-07-29T09:41:36.410Z,22.73
2017-07-29T09:42:36.398Z,22.79
2017-07-29T09:43:36.414Z,22.82
2017-07-29T09:44:36.379Z,22.79
2017-07-29T09:45:36.681Z,22.74
2017-07-29T09:46:36.052Z,22.82
2017-07-29T09:47:36.048Z,22.87
2017-07-29T09:48:36.647Z,22.7
2017-07-29T09:49:36.650Z,22.61
2017-07-29T09:50:36.626Z,22.66
2017-07-29T09:51:36.292Z,22.69
2017-07-29T09:52:36.600Z,22.61
2017-07-29T09:53:36.270Z,22.57
2017-07-29T09:54:36.582Z,22.65
2017-07-29T09:55:36.560Z,22.61
2017-07-29T09:56:36.232Z,22.65
2017-07-29T09:57:36.225Z,22.54
2017-07-29T09:58:36.221Z,22.58
2017-07-29T09:59:36.202Z,22.65
2017-07-29T10:00:36.496Z,22.7
2017-07-29T10:01:36.468Z,22.67
2017-07-29T10:02:36.466Z,22.72
2017-07-29T10:03:36.162Z,22.5
2017-07-29T10:04:36.155Z,22.51
2017-07-29T10:05:36.116Z,22.51
2017-07-29T10:06:36.122Z,22.4
2017-07-29T10:07:36.113Z,22.54
2017-07-29T10:08:36.098Z,22.65
2017-07-29T10:09:36.390Z,22.82
2017-07-29T10:10:36.074Z,22.91
2017-07-29T10:11:36.061Z,22.95
2017-07-29T10:12:36.354Z,22.99
2017-07-29T10:13:36.039Z,23.16
2017-07-29T10:14:36.359Z,23.07
2017-07-29T10:15:36.011Z,23.33
2017-07-29T10:16:36.299Z,23.4
2017-07-29T10:17:36.299Z,23.47
2017-07-29T10:18:36.286Z,23.59
2017-07-29T10:19:36.268Z,23.57
2017-07-29T10:20:36.258Z,23.42
2017-07-29T10:21:36.250Z,23.47
2017-07-29T10:22:36.248Z,23.45
2017-07-29T10:23:36.230Z,23.55
2017-07-29T10:24:35.901Z,23.7
2017-07-29T10:25:36.203Z,23.65
2017-07-29T10:26:36.203Z,23.7
2017-07-29T10:27:36.181Z,23.85
2017-07-29T10:28:35.867Z,23.99
2017-07-29T10:29:36.177Z,23.89
2017-07-29T10:30:36.182Z,23.77
2017-07-29T10:31:35.856Z,23.87
2017-07-29T10:32:35.827Z,23.78
2017-07-29T10:33:36.131Z,23.78
2017-07-29T10:34:35.838Z,23.84
2017-07-29T10:35:36.112Z,23.75
2017-07-29T10:36:36.150Z,23.63
2017-07-29T10:37:36.088Z,23.5
2017-07-29T10:38:36.125Z,23.52
2017-07-29T10:39:36.065Z,23.69
2017-07-29T10:40:36.052Z,23.66
2017-07-29T10:41:36.131Z,23.72
2017-07-29T10:42:36.121Z,23.92
2017-07-29T10:43:36.096Z,23.84
2017-07-29T10:44:35.692Z,23.63
2017-07-29T10:45:35.990Z,23.62
2017-07-29T10:46:36.024Z,23.63
2017-07-29T10:47:35.982Z,23.55
2017-07-29T10:48:35.965Z,23.47
2017-07-29T10:49:35.984Z,23.63
2017-07-29T10:50:35.960Z,23.54
2017-07-29T10:51:35.984Z,23.52
2017-07-29T10:52:35.962Z,23.35
2017-07-29T10:53:35.940Z,23.13
2017-07-29T10:54:35.901Z,23.13
2017-07-29T10:55:35.922Z,23.25
2017-07-29T10:56:35.971Z,23.21
2017-07-29T10:57:35.551Z,23.03
2017-07-29T10:58:35.583Z,22.98
2017-07-29T10:59:35.844Z,23.04
2017-07-29T11:00:35.498Z,23.02
2017-07-29T11:01:35.888Z,23.03
2017-07-29T11:02:35.548Z,23.03
2017-07-29T11:03:35.780Z,23.13
2017-07-29T11:04:35.462Z,23.1
2017-07-29T11:05:35.766Z,23.16
2017-07-29T11:06:35.748Z,23.16
2017-07-29T11:07:35.428Z,23.22
2017-07-29T11:08:35.434Z,23.28
2017-07-29T11:09:35.407Z,23.24
2017-07-29T11:10:35.715Z,23.14
2017-07-29T11:11:35.689Z,23.09
2017-07-29T11:12:35.670Z,23.17
2017-07-29T11:13:35.666Z,23.22
2017-07-29T11:14:35.658Z,23.36
2017-07-29T11:15:35.622Z,23.32
2017-07-29T11:16:35.629Z,23.33
2017-07-29T11:17:35.617Z,23.5
2017-07-29T11:18:35.622Z,23.59
2017-07-29T11:19:35.589Z,23.62
2017-07-29T11:20:35.582Z,23.6
2017-07-29T11:21:35.562Z,23.63
2017-07-29T11:22:35.551Z,23.75
2017-07-29T11:23:35.553Z,23.72
2017-07-29T11:24:35.530Z,23.7
2017-07-29T11:25:35.523Z,23.73
2017-07-29T11:26:35.530Z,23.73
2017-07-29T11:27:35.500Z,23.8
2017-07-29T11:28:35.499Z,23.66
2017-07-29T11:29:35.220Z,23.6
2017-07-29T11:30:35.148Z,23.63
2017-07-29T11:31:35.453Z,23.66
2017-07-29T11:32:35.129Z,23.66
2017-07-29T11:33:35.202Z,23.59
2017-07-29T11:34:35.102Z,23.55
2017-07-29T11:35:35.107Z,23.55
2017-07-29T11:36:35.091Z,23.55
2017-07-29T11:37:35.145Z,23.44
2017-07-29T11:38:35.377Z,23.51
2017-07-29T11:39:35.057Z,23.51
2017-07-29T11:40:35.042Z,23.52
2017-07-29T11:41:35.340Z,23.38
2017-07-29T11:42:35.319Z,23.28
2017-07-29T11:43:35.313Z,23.27
2017-07-29T11:44:35.309Z,23.36
2017-07-29T11:45:34.991Z,23.35
2017-07-29T11:46:34.983Z,23.38
2017-07-29T11:47:35.254Z,23.25
2017-07-29T11:48:35.252Z,23.32
2017-07-29T11:49:35.246Z,23.27
2017-07-29T11:50:35.240Z,23.33
2017-07-29T11:51:35.240Z,23.38
2017-07-29T11:52:34.901Z,23.59
2017-07-29T11:53:35.212Z,23.73
2017-07-29T11:54:35.239Z,23.97
2017-07-29T11:55:35.179Z,23.96
2017-07-29T11:56:35.180Z,24.17
2017-07-29T11:57:35.151Z,24.22
2017-07-29T11:58:34.836Z,24.44
2017-07-29T11:59:35.142Z,24.55
2017-07-29T12:00:35.239Z,24.8
2017-07-29T12:01:35.097Z,25.02
2017-07-29T12:02:35.112Z,25.3
2017-07-29T12:03:35.081Z,25.49
2017-07-29T12:04:34.462Z,25.63
2017-07-29T12:05:34.761Z,25.77
2017-07-29T12:06:35.046Z,25.81
2017-07-29T12:07:34.769Z,25.58
2017-07-29T12:08:34.731Z,25.49
2017-07-29T12:09:35.033Z,25.39
2017-07-29T12:10:35.013Z,25.27
2017-07-29T12:11:35.000Z,25.05
2017-07-29T12:12:34.690Z,25.02
2017-07-29T12:13:34.689Z,24.82
2017-07-29T12:14:34.673Z,24.78
2017-07-29T12:15:34.971Z,24.75
2017-07-29T12:16:34.995Z,24.61
2017-07-29T12:17:34.952Z,24.7
2017-07-29T12:18:34.945Z,24.69
2017-07-29T12:19:34.651Z,24.57
2017-07-29T12:20:34.602Z,24.61
2017-07-29T12:21:34.924Z,24.78
2017-07-29T12:22:34.581Z,24.7
2017-07-29T12:23:34.572Z,24.85
2017-07-29T12:24:34.880Z,25.03
2017-07-29T12:25:34.860Z,25.05
2017-07-29T12:26:34.859Z,25.11
2017-07-29T12:27:34.841Z,25.12
2017-07-29T12:28:34.845Z,25.11
2017-07-29T12:29:34.821Z,25.12
2017-07-29T12:30:34.815Z,25.11
2017-07-29T12:31:34.806Z,25.15
2017-07-29T12:32:34.801Z,24.85
2017-07-29T12:33:34.493Z,24.84
2017-07-29T12:34:34.764Z,24.9
2017-07-29T12:35:34.523Z,24.81
2017-07-29T12:36:34.453Z,24.75
2017-07-29T12:37:34.443Z,24.61
2017-07-29T12:38:34.716Z,24.57
2017-07-29T12:39:34.412Z,24.46
2017-07-29T12:40:34.402Z,24.46
2017-07-29T12:41:34.088Z,24.47
2017-07-29T12:42:34.683Z,24.37
2017-07-29T12:43:34.368Z,24.27
2017-07-29T12:44:34.350Z,24.34
2017-07-29T12:45:34.503Z,24.36
2017-07-29T12:46:34.351Z,24.34
2017-07-29T12:47:34.731Z,24.34
2017-07-29T12:48:34.305Z,24.28
2017-07-29T12:49:34.296Z,24.32
2017-07-29T12:50:34.604Z,24.24
2017-07-29T12:51:34.576Z,24.29
2017-07-29T12:52:34.570Z,24.24
2017-07-29T12:53:34.563Z,24.37
2017-07-29T12:54:33.945Z,24.32
2017-07-29T12:55:34.556Z,24.39
2017-07-29T12:56:34.222Z,24.49